createdAt,value
2023-03-27T00:02:32.852Z,4.07
2023-03-27T00:05:16.294Z,4.07
2023-03-27T00:08:01.812Z,4.01
2023-03-27T00:10:44.752Z,3.94
2023-03-27T00:13:29.748Z,3.97
2023-03-27T00:16:13.295Z,3.94
2023-03-27T00:18:57.348Z,3.88
2023-03-27T00:21:40.508Z,3.88
2023-03-27T00:24:23.685Z,3.88
2023-03-27T00:27:06.742Z,3.87
2023-03-27T00:29:50.979Z,3.87
2023-03-27T00:32:34.639Z,3.85
2023-03-27T00:35:17.701Z,3.84
2023-03-27T00:38:01.147Z,3.88
2023-03-27T00:40:45.119Z,3.85
2023-03-27T00:43:33.917Z,3.89
2023-03-27T00:46:31.671Z,3.89
2023-03-27T00:49:17.233Z,3.93
2023-03-27T00:52:02.586Z,3.94
2023-03-27T00:54:46.885Z,3.97
2023-03-27T00:57:30.694Z,3.97
2023-03-27T01:00:17.113Z,3.94
2023-03-27T01:03:04.293Z,3.97
2023-03-27T01:05:48.258Z,3.90
2023-03-27T01:08:33.994Z,3.92
2023-03-27T01:11:27.919Z,3.88
2023-03-27T01:14:20.750Z,3.92
2023-03-27T01:17:15.879Z,3.91
2023-03-27T01:20:47.096Z,3.92
2023-03-27T01:24:17.499Z,3.93
2023-03-27T01:27:07.947Z,3.92
2023-03-27T01:30:03.417Z,3.94
2023-03-27T01:33:21.540Z,3.94
2023-03-27T01:36:22.081Z,3.94
2023-03-27T01:39:29.671Z,3.92
2023-03-27T01:42:21.606Z,3.95
2023-03-27T01:45:09.457Z,3.92
2023-03-27T01:47:57.967Z,3.95
2023-03-27T01:50:45.787Z,3.95
2023-03-27T01:53:34.279Z,3.98
2023-03-27T01:56:26.627Z,3.96
2023-03-27T01:59:16.334Z,3.94
2023-03-27T02:02:04.213Z,3.92
2023-03-27T02:04:52.804Z,3.94
2023-03-27T02:07:40.746Z,3.94
2023-03-27T02:10:28.170Z,3.95
2023-03-27T02:13:19.857Z,3.97
2023-03-27T02:16:06.856Z,3.97
2023-03-27T02:18:56.783Z,3.98
2023-03-27T02:21:39.827Z,3.97
2023-03-27T02:24:23.286Z,3.96
2023-03-27T02:27:15.798Z,3.95
2023-03-27T02:30:10.076Z,3.93
2023-03-27T02:33:02.728Z,3.94
2023-03-27T02:35:52.183Z,3.92
2023-03-27T02:38:43.676Z,3.91
2023-03-27T02:41:31.666Z,3.93
2023-03-27T02:44:47.374Z,3.92
2023-03-27T02:47:38.803Z,3.91
2023-03-27T02:50:27.767Z,3.89
2023-03-27T02:53:22.131Z,3.88
2023-03-27T02:56:08.979Z,3.86
2023-03-27T02:58:57.305Z,3.86
2023-03-27T03:01:52.951Z,3.82
2023-03-27T03:04:46.319Z,3.82
2023-03-27T03:07:36.165Z,3.83
2023-03-27T03:10:19.121Z,3.84
2023-03-27T03:13:01.992Z,3.83
2023-03-27T03:15:46.013Z,3.83
2023-03-27T03:18:29.090Z,3.85
2023-03-27T03:21:15.583Z,3.83
2023-03-27T03:23:59.333Z,3.83
2023-03-27T03:26:45.043Z,3.79
2023-03-27T03:29:30.233Z,3.81
2023-03-27T03:32:22.991Z,3.82
2023-03-27T03:35:09.977Z,3.80
2023-03-27T03:37:54.838Z,3.81
2023-03-27T03:40:37.874Z,3.80
2023-03-27T03:43:22.141Z,3.82
2023-03-27T03:46:05.592Z,3.82
2023-03-27T03:48:48.569Z,3.80
2023-03-27T03:51:31.597Z,3.82
2023-03-27T03:54:15.906Z,3.80
2023-03-27T03:56:59.839Z,3.82
2023-03-27T03:59:43.021Z,3.84
2023-03-27T04:02:43.680Z,3.85
2023-03-27T04:05:29.336Z,3.86
2023-03-27T04:08:14.568Z,3.84
2023-03-27T04:11:30.430Z,3.80
2023-03-27T04:14:31.852Z,3.78
2023-03-27T04:17:17.092Z,3.74
2023-03-27T04:20:00.162Z,3.74
2023-03-27T04:22:46.443Z,3.71
2023-03-27T04:25:32.187Z,3.70
2023-03-27T04:28:17.262Z,3.68
2023-03-27T04:31:06.677Z,3.67
2023-03-27T04:34:22.219Z,3.65
2023-03-27T04:37:23.132Z,3.63
2023-03-27T04:40:33.389Z,3.68
2023-03-27T04:43:17.947Z,3.66
2023-03-27T04:46:00.990Z,3.69
2023-03-27T04:48:44.546Z,3.73
2023-03-27T04:51:38.564Z,3.76
2023-03-27T04:54:22.769Z,3.76
2023-03-27T04:57:06.001Z,3.79
2023-03-27T04:59:51.865Z,3.79
2023-03-27T05:02:54.715Z,3.81
2023-03-27T05:05:51.825Z,3.77
2023-03-27T05:08:35.336Z,3.77
2023-03-27T05:11:18.489Z,3.78
2023-03-27T05:14:01.667Z,3.76
2023-03-27T05:16:50.638Z,3.75
2023-03-27T05:19:35.186Z,3.65
2023-03-27T05:22:18.926Z,3.62
2023-03-27T05:25:09.125Z,3.63
2023-03-27T05:27:54.080Z,3.58
2023-03-27T05:30:37.777Z,3.53
2023-03-27T05:33:37.054Z,3.39
2023-03-27T05:36:22.132Z,3.24
2023-03-27T05:39:05.614Z,3.20
2023-03-27T05:41:59.683Z,3.18
2023-03-27T05:44:43.316Z,3.15
2023-03-27T05:47:26.311Z,2.99
2023-03-27T05:50:12.958Z,2.91
2023-03-27T05:52:56.535Z,2.85
2023-03-27T05:55:46.570Z,2.83
2023-03-27T05:58:29.705Z,2.72
2023-03-27T06:01:16.805Z,2.51
2023-03-27T06:04:00.067Z,2.14
2023-03-27T06:07:20.355Z,2.09
2023-03-27T06:10:04.129Z,2.03
2023-03-27T06:12:50.302Z,1.84
2023-03-27T06:15:47.340Z,1.71
2023-03-27T06:18:41.508Z,1.67
2023-03-27T06:21:26.112Z,1.60
2023-03-27T06:24:16.791Z,1.41
2023-03-27T06:27:00.014Z,1.32
2023-03-27T06:29:46.938Z,1.21
2023-03-27T06:32:30.402Z,1.11
2023-03-27T06:35:15.012Z,1.26
2023-03-27T06:38:09.632Z,1.28
2023-03-27T06:40:57.021Z,1.24
2023-03-27T06:43:41.123Z,1.13
2023-03-27T06:46:42.829Z,1.14
2023-03-27T06:49:54.381Z,1.04
2023-03-27T06:52:39.468Z,1.15
2023-03-27T06:55:49.478Z,1.14
2023-03-27T06:58:34.203Z,1.05
2023-03-27T07:01:17.220Z,0.99
2023-03-27T07:04:16.745Z,0.88
2023-03-27T07:07:20.075Z,0.91
2023-03-27T07:10:03.094Z,0.88
2023-03-27T07:12:46.609Z,0.76
2023-03-27T07:15:36.240Z,0.71
2023-03-27T07:18:19.269Z,0.81
2023-03-27T07:21:06.010Z,0.75
2023-03-27T07:23:48.942Z,0.84
2023-03-27T07:26:43.981Z,0.93
2023-03-27T07:29:33.290Z,0.71
2023-03-27T07:32:29.679Z,0.73
2023-03-27T07:35:18.792Z,0.71
2023-03-27T07:38:37.281Z,0.71
2023-03-27T07:41:30.068Z,0.70
2023-03-27T07:44:13.188Z,0.63
2023-03-27T07:47:07.586Z,0.64
2023-03-27T07:49:52.533Z,0.68
2023-03-27T07:52:40.572Z,0.65
2023-03-27T07:55:24.015Z,0.81
2023-03-27T07:58:17.762Z,0.77
2023-03-27T08:01:02.467Z,0.94
2023-03-27T08:03:48.678Z,0.78
2023-03-27T08:06:35.139Z,0.77
2023-03-27T08:09:19.011Z,0.73
2023-03-27T08:12:02.621Z,0.77
2023-03-27T08:14:48.351Z,0.72
2023-03-27T08:17:37.245Z,0.93
2023-03-27T08:20:20.502Z,1.09
2023-03-27T08:23:05.851Z,1.19
2023-03-27T08:26:09.218Z,1.18
2023-03-27T08:29:00.733Z,1.19
2023-03-27T08:31:46.341Z,1.23
2023-03-27T08:34:29.576Z,1.10
2023-03-27T08:37:13.306Z,1.23
2023-03-27T08:40:27.851Z,1.31
2023-03-27T08:43:37.460Z,1.39
2023-03-27T08:46:23.873Z,1.49
2023-03-27T08:49:18.376Z,1.43
2023-03-27T08:52:26.126Z,1.44
2023-03-27T08:55:18.816Z,1.42
2023-03-27T08:58:19.712Z,1.39
2023-03-27T09:01:09.579Z,1.31
2023-03-27T09:04:02.240Z,1.17
2023-03-27T09:06:58.274Z,1.02
2023-03-27T09:09:53.305Z,1.09
2023-03-27T09:12:48.336Z,1.02
2023-03-27T09:15:39.254Z,1.13
2023-03-27T09:18:28.581Z,1.16
2023-03-27T09:21:17.975Z,1.20
2023-03-27T09:24:07.098Z,1.20
2023-03-27T09:27:18.715Z,1.39
2023-03-27T09:30:23.310Z,1.28
2023-03-27T09:33:14.079Z,1.43
2023-03-27T09:36:00.645Z,1.46
2023-03-27T09:38:46.457Z,1.43
2023-03-27T09:41:40.946Z,1.43
2023-03-27T09:44:27.802Z,1.42
2023-03-27T09:47:20.535Z,1.48
2023-03-27T09:50:22.227Z,1.57
2023-03-27T09:53:17.429Z,1.66
2023-03-27T09:56:07.898Z,1.71
2023-03-27T09:58:54.790Z,1.68
2023-03-27T10:01:39.000Z,1.63
2023-03-27T10:04:30.276Z,1.68
2023-03-27T10:07:25.209Z,1.78
2023-03-27T10:10:31.941Z,1.57
2023-03-27T10:13:22.220Z,1.49
2023-03-27T10:16:09.394Z,1.50
2023-03-27T10:19:03.890Z,1.56
2023-03-27T10:21:56.501Z,1.63
2023-03-27T10:24:46.658Z,2.02
2023-03-27T10:27:40.566Z,2.49
2023-03-27T10:30:42.270Z,2.87
2023-03-27T10:33:48.583Z,2.96
2023-03-27T10:36:55.476Z,2.72
2023-03-27T10:39:44.604Z,2.41
2023-03-27T10:42:39.329Z,2.31
2023-03-27T10:45:24.557Z,2.31
2023-03-27T10:48:19.042Z,2.35
2023-03-27T10:51:07.218Z,2.38
2023-03-27T10:54:18.246Z,2.22
2023-03-27T10:57:14.033Z,2.29
2023-03-27T11:00:09.787Z,2.35
2023-03-27T11:03:06.696Z,2.65
2023-03-27T11:05:53.797Z,2.87
2023-03-27T11:09:05.579Z,2.99
2023-03-27T11:11:57.248Z,3.01
2023-03-27T11:14:49.667Z,2.92
2023-03-27T11:17:42.726Z,2.73
2023-03-27T11:20:45.879Z,2.42
2023-03-27T11:23:36.432Z,2.36
2023-03-27T11:26:49.030Z,2.48
2023-03-27T11:29:42.520Z,2.89
2023-03-27T11:32:39.437Z,3.38
2023-03-27T11:35:25.195Z,3.50
2023-03-27T11:38:24.772Z,3.40
2023-03-27T11:41:14.665Z,3.05
2023-03-27T11:43:58.670Z,2.87
2023-03-27T11:47:22.780Z,2.76
2023-03-27T11:50:40.227Z,2.88
2023-03-27T11:53:36.155Z,2.90
2023-03-27T11:56:46.725Z,2.86
2023-03-27T11:59:53.644Z,2.88
2023-03-27T12:02:55.866Z,2.99
2023-03-27T12:05:56.064Z,3.16
2023-03-27T12:09:13.062Z,3.31
2023-03-27T12:12:31.712Z,3.54
2023-03-27T12:15:33.982Z,3.46
2023-03-27T12:18:41.359Z,3.36
2023-03-27T12:21:47.846Z,3.40
2023-03-27T12:24:57.126Z,3.63
2023-03-27T12:28:22.429Z,3.81
2023-03-27T12:31:42.478Z,3.70
2023-03-27T12:34:44.288Z,3.83
2023-03-27T12:37:34.725Z,3.52
2023-03-27T12:40:31.998Z,3.53
2023-03-27T12:43:29.572Z,3.61
2023-03-27T12:46:34.869Z,3.59
2023-03-27T12:49:47.675Z,3.59
2023-03-27T12:52:46.157Z,3.52
2023-03-27T12:55:40.297Z,3.45
2023-03-27T12:58:35.231Z,3.63
2023-03-27T13:01:52.168Z,3.78
2023-03-27T13:05:16.486Z,3.53
2023-03-27T13:08:23.143Z,3.41
2023-03-27T13:11:37.832Z,3.58
2023-03-27T13:14:46.854Z,3.87
2023-03-27T13:17:52.989Z,4.22
2023-03-27T13:20:46.574Z,4.39
2023-03-27T13:23:47.051Z,4.32
2023-03-27T13:26:54.208Z,4.28
2023-03-27T13:29:39.787Z,4.16
2023-03-27T13:32:34.574Z,4.09
2023-03-27T13:35:40.760Z,4.20
2023-03-27T13:39:13.331Z,4.39
2023-03-27T13:42:05.548Z,4.47
2023-03-27T13:45:04.156Z,4.62
2023-03-27T13:48:17.458Z,4.26
2023-03-27T13:51:19.408Z,4.44
2023-03-27T13:54:28.935Z,4.57
2023-03-27T13:57:26.321Z,4.30
2023-03-27T14:00:43.900Z,3.64
2023-03-27T14:04:06.419Z,3.32
2023-03-27T14:07:10.678Z,2.86
2023-03-27T14:10:10.908Z,2.55
2023-03-27T14:13:15.726Z,2.33
2023-03-27T14:16:30.396Z,2.33
2023-03-27T14:19:56.388Z,2.46
2023-03-27T14:22:53.590Z,2.43
2023-03-27T14:25:47.773Z,2.48
2023-03-27T14:28:51.575Z,2.60
2023-03-27T14:31:44.634Z,2.64
2023-03-27T14:34:54.038Z,2.71
2023-03-27T14:37:56.968Z,2.76
2023-03-27T14:40:50.401Z,2.78
2023-03-27T14:43:36.532Z,2.84
2023-03-27T14:46:24.102Z,2.95
2023-03-27T14:49:15.530Z,3.48
2023-03-27T14:52:04.007Z,3.77
2023-03-27T14:55:06.339Z,4.13
2023-03-27T14:57:58.756Z,4.47
2023-03-27T15:00:52.672Z,4.52
2023-03-27T15:03:39.022Z,4.26
2023-03-27T15:06:26.429Z,4.05
2023-03-27T15:09:15.828Z,4.03
2023-03-27T15:12:17.527Z,3.69
2023-03-27T15:15:01.709Z,3.61
2023-03-27T15:17:45.558Z,3.63
2023-03-27T15:20:34.462Z,3.90
2023-03-27T15:23:23.035Z,4.28
2023-03-27T15:26:11.953Z,4.75
2023-03-27T15:29:04.202Z,5.20
2023-03-27T15:31:50.555Z,5.46
2023-03-27T15:34:38.077Z,4.97
2023-03-27T15:37:25.257Z,5.13
2023-03-27T15:40:36.745Z,5.06
2023-03-27T15:43:22.792Z,4.80
2023-03-27T15:46:16.004Z,4.39
2023-03-27T15:48:59.066Z,4.03
2023-03-27T15:51:42.139Z,3.74
2023-03-27T15:54:29.909Z,3.48
2023-03-27T15:57:17.172Z,3.10
2023-03-27T16:00:08.473Z,2.89
2023-03-27T16:02:55.772Z,2.82
2023-03-27T16:05:43.627Z,2.76
2023-03-27T16:08:31.796Z,2.75
2023-03-27T16:11:33.710Z,2.67
2023-03-27T16:14:29.550Z,2.51
2023-03-27T16:17:22.493Z,2.31
2023-03-27T16:20:33.914Z,2.18
2023-03-27T16:23:17.524Z,2.15
2023-03-27T16:26:02.535Z,2.06
2023-03-27T16:28:46.996Z,2.05
2023-03-27T16:31:29.914Z,2.03
2023-03-27T16:34:23.034Z,2.10
2023-03-27T16:37:06.634Z,2.07
2023-03-27T16:39:49.940Z,2.04
2023-03-27T16:42:33.077Z,1.96
2023-03-27T16:45:17.862Z,1.94
2023-03-27T16:48:01.292Z,1.90
2023-03-27T16:50:44.311Z,1.90
2023-03-27T16:53:27.359Z,1.86
2023-03-27T16:56:11.615Z,1.78
2023-03-27T16:58:54.703Z,1.72
2023-03-27T17:01:39.165Z,1.69
2023-03-27T17:04:22.129Z,1.64
2023-03-27T17:07:05.837Z,1.60
2023-03-27T17:09:48.879Z,1.55
2023-03-27T17:12:32.442Z,1.49
2023-03-27T17:15:16.795Z,1.43
2023-03-27T17:18:01.270Z,1.43
2023-03-27T17:20:44.262Z,1.40
2023-03-27T17:23:27.297Z,1.35
2023-03-27T17:26:14.096Z,1.34
2023-03-27T17:28:59.320Z,1.24
2023-03-27T17:31:42.534Z,1.23
2023-03-27T17:34:27.555Z,1.19
2023-03-27T17:37:12.608Z,1.16
2023-03-27T17:39:55.986Z,1.11
2023-03-27T17:42:39.187Z,1.05
2023-03-27T17:45:23.823Z,1.01
2023-03-27T17:48:07.181Z,0.95
2023-03-27T17:51:05.266Z,0.91
2023-03-27T17:53:51.494Z,0.84
2023-03-27T17:56:34.565Z,0.77
2023-03-27T17:59:17.685Z,0.70
2023-03-27T18:02:01.185Z,0.65
2023-03-27T18:04:44.516Z,0.62
2023-03-27T18:07:29.585Z,0.57
2023-03-27T18:10:17.137Z,0.49
2023-03-27T18:13:00.214Z,0.42
2023-03-27T18:15:43.325Z,0.42
2023-03-27T18:18:27.069Z,0.41
2023-03-27T18:21:10.118Z,0.41
2023-03-27T18:23:56.057Z,0.41
2023-03-27T18:26:39.153Z,0.41
2023-03-27T18:29:24.187Z,0.40
2023-03-27T18:32:07.154Z,0.35
2023-03-27T18:34:51.096Z,0.37
2023-03-27T18:37:34.878Z,0.35
2023-03-27T18:40:19.735Z,0.37
2023-03-27T18:43:02.705Z,0.36
2023-03-27T18:45:45.765Z,0.41
2023-03-27T18:48:29.730Z,0.34
2023-03-27T18:51:13.266Z,0.27
2023-03-27T18:53:56.163Z,0.29
2023-03-27T18:56:40.479Z,0.23
2023-03-27T18:59:24.297Z,0.22
2023-03-27T19:02:09.329Z,0.25
2023-03-27T19:04:53.299Z,0.28
2023-03-27T19:07:36.716Z,0.27
2023-03-27T19:10:27.593Z,0.28
2023-03-27T19:13:31.754Z,0.24
2023-03-27T19:16:37.811Z,0.18
2023-03-27T19:19:20.976Z,0.10
2023-03-27T19:22:05.917Z,0.19
2023-03-27T19:24:55.354Z,0.20
2023-03-27T19:27:39.177Z,0.18
2023-03-27T19:30:23.825Z,0.22
2023-03-27T19:33:06.716Z,0.23
2023-03-27T19:35:53.679Z,0.23
2023-03-27T19:38:37.414Z,0.22
2023-03-27T19:41:20.390Z,0.21
2023-03-27T19:44:03.530Z,0.25
2023-03-27T19:46:47.890Z,0.27
2023-03-27T19:49:30.891Z,0.22
2023-03-27T19:52:32.496Z,0.21
2023-03-27T19:55:15.836Z,0.24
2023-03-27T19:57:58.872Z,0.24
2023-03-27T20:00:43.306Z,0.24
2023-03-27T20:03:29.429Z,0.24
2023-03-27T20:06:18.129Z,0.23
2023-03-27T20:09:01.563Z,0.19
2023-03-27T20:11:44.451Z,0.16
2023-03-27T20:14:27.343Z,0.14
2023-03-27T20:17:27.083Z,0.14
2023-03-27T20:20:13.116Z,0.11
2023-03-27T20:22:58.175Z,0.14
2023-03-27T20:25:41.170Z,0.13
2023-03-27T20:28:24.011Z,0.14
2023-03-27T20:31:07.585Z,0.14
2023-03-27T20:33:52.297Z,0.11
2023-03-27T20:36:38.899Z,0.09
2023-03-27T20:39:34.680Z,0.02
2023-03-27T20:42:18.963Z,-0.07
2023-03-27T20:45:03.258Z,-0.11
2023-03-27T20:47:47.328Z,-0.20
2023-03-27T20:50:31.126Z,-0.17
2023-03-27T20:53:15.420Z,-0.12
2023-03-27T20:55:59.951Z,-0.11
2023-03-27T20:58:44.331Z,-0.12
2023-03-27T21:01:27.636Z,-0.11
2023-03-27T21:04:11.815Z,-0.29
2023-03-27T21:06:55.677Z,-0.40
2023-03-27T21:09:40.498Z,-0.49
2023-03-27T21:12:23.378Z,-0.50
2023-03-27T21:15:07.348Z,-0.49
2023-03-27T21:17:50.567Z,-0.46
2023-03-27T21:20:35.226Z,-0.55
2023-03-27T21:23:18.793Z,-0.58
2023-03-27T21:26:03.013Z,-0.57
2023-03-27T21:28:46.145Z,-0.63
2023-03-27T21:31:29.135Z,-0.63
2023-03-27T21:34:12.014Z,-0.57
2023-03-27T21:36:54.969Z,-0.52
2023-03-27T21:39:37.899Z,-0.46
2023-03-27T21:42:22.195Z,-0.42
2023-03-27T21:45:05.800Z,-0.44
2023-03-27T21:47:51.043Z,-0.42
2023-03-27T21:50:33.921Z,-0.41
2023-03-27T21:53:17.181Z,-0.38
2023-03-27T21:56:00.279Z,-0.42
2023-03-27T21:58:44.780Z,-0.52
2023-03-27T22:01:27.754Z,-0.52
2023-03-27T22:04:10.698Z,-0.51
2023-03-27T22:06:53.693Z,-0.49
2023-03-27T22:09:36.650Z,-0.54
2023-03-27T22:12:19.594Z,-0.55
2023-03-27T22:15:03.953Z,-0.62
2023-03-27T22:17:46.917Z,-0.67
2023-03-27T22:20:29.973Z,-0.72
2023-03-27T22:23:12.842Z,-0.82
2023-03-27T22:25:56.043Z,-0.91
2023-03-27T22:28:38.992Z,-0.93
2023-03-27T22:31:23.405Z,-1.04
2023-03-27T22:34:06.460Z,-1.17
2023-03-27T22:36:49.323Z,-1.17
2023-03-27T22:39:32.277Z,-1.13
2023-03-27T22:42:15.499Z,-1.17
2023-03-27T22:44:58.694Z,-1.29
2023-03-27T22:47:43.346Z,-1.30
2023-03-27T22:50:26.512Z,-1.29
2023-03-27T22:53:09.676Z,-1.33
2023-03-27T22:55:53.771Z,-1.30
2023-03-27T22:58:36.799Z,-1.30
2023-03-27T23:01:19.887Z,-1.34
2023-03-27T23:04:04.462Z,-1.33
2023-03-27T23:06:47.431Z,-1.33
2023-03-27T23:09:30.337Z,-1.38
2023-03-27T23:12:13.354Z,-1.42
2023-03-27T23:14:56.296Z,-1.35
2023-03-27T23:17:39.211Z,-1.36
2023-03-27T23:20:23.649Z,-1.34
2023-03-27T23:23:06.368Z,-1.36
2023-03-27T23:25:49.253Z,-1.34
2023-03-27T23:28:33.916Z,-1.30
2023-03-27T23:31:18.812Z,-1.27
2023-03-27T23:34:01.693Z,-1.25
2023-03-27T23:36:45.931Z,-1.27
2023-03-27T23:39:28.914Z,-1.27
2023-03-27T23:42:11.811Z,-1.24
2023-03-27T23:44:54.878Z,-1.22
2023-03-27T23:47:37.790Z,-1.24
2023-03-27T23:50:20.695Z,-1.16
2023-03-27T23:53:04.953Z,-1.13
2023-03-27T23:55:47.915Z,-1.11
2023-03-27T23:58:32.580Z,-1.11
